Terminal Aerodrome Forecast
Issued by NWS

Home | Current Version | Previous Version | Text Only | Print | Product List | Glossary Off
Versions: 1 2 3 4 5 6 7 8 9 10 11 12 13 14 15 16 17 18

376
FTUS43 KMPX 151142
TAFRWF
TAF
KRWF 151142Z 1512/1612 27006KT P6SM OVC018
     FM160000 17007KT P6SM OVC035
     FM161000 11004KT P6SM BKN120=

USA.gov is the U.S. government's official web portal to all federal, state and local government web resources and services.